createdAt,value
2022-11-17T00:00:22.974Z,7.5
2022-11-17T00:01:23.022Z,7.5
2022-11-17T00:02:23.024Z,7.6
2022-11-17T00:03:22.987Z,7.6
2022-11-17T00:04:22.977Z,7.5
2022-11-17T00:05:22.985Z,7.4
2022-11-17T00:06:23.004Z,7.4
2022-11-17T00:07:23.032Z,7.4
2022-11-17T00:08:23.011Z,7.5
2022-11-17T00:09:22.991Z,7.5
2022-11-17T00:10:22.980Z,7.5
2022-11-17T00:11:22.995Z,7.5
2022-11-17T00:12:23.259Z,7.6
2022-11-17T00:13:23.001Z,7.6
2022-11-17T00:14:22.989Z,7.6
2022-11-17T00:15:22.989Z,7.7
2022-11-17T00:16:23.020Z,7.7
2022-11-17T00:17:23.020Z,7.7
2022-11-17T00:18:23.018Z,7.8
2022-11-17T00:19:22.992Z,7.8
2022-11-17T00:20:22.987Z,7.9
2022-11-17T00:21:22.998Z,7.9
2022-11-17T00:22:22.989Z,7.9
2022-11-17T00:23:22.995Z,8
2022-11-17T00:24:23.114Z,8
2022-11-17T00:25:22.993Z,8
2022-11-17T00:26:22.996Z,8
2022-11-17T00:27:23.000Z,8
2022-11-17T00:28:22.997Z,7.9
2022-11-17T00:29:22.992Z,7.9
2022-11-17T00:30:22.986Z,7.9
2022-11-17T00:31:23.001Z,7.9
2022-11-17T00:32:22.995Z,7.8
2022-11-17T00:33:22.989Z,7.8
2022-11-17T00:34:23.003Z,7.7
2022-11-17T00:35:23.011Z,7.7
2022-11-17T00:36:23.011Z,7.6
2022-11-17T00:37:22.996Z,7.6
2022-11-17T00:38:22.992Z,7.6
2022-11-17T00:39:22.998Z,7.6
2022-11-17T00:40:23.118Z,7.5
2022-11-17T00:41:23.003Z,7.5
2022-11-17T00:42:23.000Z,7.5
2022-11-17T00:43:22.993Z,7.5
2022-11-17T00:44:22.994Z,7.4
2022-11-17T00:45:23.001Z,7.4
2022-11-17T00:46:22.998Z,7.4
2022-11-17T00:47:22.995Z,7.4
2022-11-17T00:48:22.990Z,7.4
2022-11-17T00:49:22.986Z,7.3
2022-11-17T00:50:23.140Z,7.3
2022-11-17T00:51:23.005Z,7.3
2022-11-17T00:52:23.001Z,7.3
2022-11-17T00:53:22.995Z,7.3
2022-11-17T00:54:22.992Z,7.3
2022-11-17T00:55:23.070Z,7.3
2022-11-17T00:56:23.126Z,7.3
2022-11-17T00:57:22.998Z,7.3
2022-11-17T00:58:23.002Z,7.4
2022-11-17T00:59:23.006Z,7.4
2022-11-17T01:00:22.995Z,7.5
2022-11-17T01:01:23.087Z,7.5
2022-11-17T01:02:22.997Z,7.6
2022-11-17T01:03:22.999Z,7.6
2022-11-17T01:04:22.992Z,7.6
2022-11-17T01:05:23.012Z,7.7
2022-11-17T01:06:23.009Z,7.7
2022-11-17T01:07:23.045Z,7.7
2022-11-17T01:08:22.998Z,7.7
2022-11-17T01:09:22.998Z,7.6
2022-11-17T01:10:23.012Z,7.6
2022-11-17T01:11:23.014Z,7.6
2022-11-17T01:12:23.131Z,7.6
2022-11-17T01:13:23.002Z,7.6
2022-11-17T01:14:23.001Z,7.6
2022-11-17T01:15:23.007Z,7.6
2022-11-17T01:16:23.023Z,7.6
2022-11-17T01:17:23.002Z,7.7
2022-11-17T01:18:22.998Z,7.8
2022-11-17T01:19:23.003Z,7.8
2022-11-17T01:20:22.996Z,7.8
2022-11-17T01:21:23.030Z,7.8
2022-11-17T01:22:23.039Z,7.8
2022-11-17T01:23:23.000Z,7.8
2022-11-17T01:24:22.998Z,7.8
2022-11-17T01:25:23.008Z,7.7
2022-11-17T01:26:23.020Z,7.7
2022-11-17T01:27:23.006Z,7.6
2022-11-17T01:28:23.022Z,7.6
2022-11-17T01:29:23.011Z,7.5
2022-11-17T01:30:22.998Z,7.5
2022-11-17T01:31:23.025Z,7.5
2022-11-17T01:32:23.001Z,7.5
2022-11-17T01:33:23.004Z,7.5
2022-11-17T01:34:23.009Z,7.6
2022-11-17T01:35:23.018Z,7.6
2022-11-17T01:36:23.028Z,7.6
2022-11-17T01:37:23.011Z,7.6
2022-11-17T01:38:23.019Z,7.7
2022-11-17T01:39:23.015Z,7.7
2022-11-17T01:40:23.020Z,7.7
2022-11-17T01:41:23.025Z,7.7
2022-11-17T01:42:23.009Z,7.7
2022-11-17T01:43:23.016Z,7.7
2022-11-17T01:44:23.277Z,7.7
2022-11-17T01:45:23.022Z,7.6
2022-11-17T01:46:23.021Z,7.6
2022-11-17T01:47:23.024Z,7.6
2022-11-17T01:48:23.016Z,7.5
2022-11-17T01:49:23.017Z,7.5
2022-11-17T01:50:23.016Z,7.5
2022-11-17T01:51:23.029Z,7.4
2022-11-17T01:52:23.013Z,7.4
2022-11-17T01:53:23.022Z,7.4
2022-11-17T01:54:23.161Z,7.3
2022-11-17T01:55:23.024Z,7.3
2022-11-17T01:56:23.027Z,7.3
2022-11-17T01:57:23.016Z,7.3
2022-11-17T01:58:23.031Z,7.3
2022-11-17T01:59:23.025Z,7.3
2022-11-17T02:00:23.055Z,7.3
2022-11-17T02:01:23.081Z,7.3
2022-11-17T02:02:23.029Z,7.3
2022-11-17T02:03:23.030Z,7.4
2022-11-17T02:04:23.019Z,7.4
2022-11-17T02:05:23.024Z,7.5
2022-11-17T02:06:23.040Z,7.6
2022-11-17T02:07:23.146Z,7.7
2022-11-17T02:08:23.032Z,7.8
2022-11-17T02:09:23.031Z,8
2022-11-17T02:10:23.033Z,8.1
2022-11-17T02:11:23.027Z,8.2
2022-11-17T02:12:23.021Z,8.3
2022-11-17T02:13:23.036Z,8.4
2022-11-17T02:14:23.012Z,8.5
2022-11-17T02:15:23.045Z,8.5
2022-11-17T02:16:23.145Z,8.6
2022-11-17T02:17:23.017Z,8.7
2022-11-17T02:18:23.023Z,8.8
2022-11-17T02:19:23.012Z,8.8
2022-11-17T02:20:23.025Z,8.8
2022-11-17T02:21:23.053Z,8.9
2022-11-17T02:22:23.023Z,8.9
2022-11-17T02:23:23.025Z,8.9
2022-11-17T02:24:23.019Z,8.9
2022-11-17T02:25:26.945Z,8.9
2022-11-17T02:26:23.033Z,9
2022-11-17T02:27:23.036Z,8.9
2022-11-17T02:28:23.020Z,8.9
2022-11-17T02:29:23.030Z,8.9
2022-11-17T02:30:23.036Z,8.9
2022-11-17T02:31:23.032Z,8.9
2022-11-17T02:32:23.139Z,8.9
2022-11-17T02:33:23.023Z,8.9
2022-11-17T02:34:23.027Z,8.9
2022-11-17T02:35:23.030Z,8.9
2022-11-17T02:36:23.025Z,8.9
2022-11-17T02:37:23.019Z,8.9
2022-11-17T02:38:23.027Z,8.9
2022-11-17T02:39:23.024Z,8.9
2022-11-17T02:40:23.023Z,8.9
2022-11-17T02:41:23.044Z,9
2022-11-17T02:42:23.020Z,9
2022-11-17T02:43:23.027Z,9
2022-11-17T02:44:23.019Z,9
2022-11-17T02:45:23.033Z,9
2022-11-17T02:46:23.025Z,9
2022-11-17T02:47:23.027Z,9
2022-11-17T02:48:23.136Z,9.1
2022-11-17T02:49:23.046Z,9.1
2022-11-17T02:50:27.980Z,9.1
2022-11-17T02:51:23.035Z,9.1
2022-11-17T02:52:23.022Z,9.1
2022-11-17T02:53:23.022Z,9.1
2022-11-17T02:54:23.027Z,9.1
2022-11-17T02:55:23.020Z,9.2
2022-11-17T02:56:23.032Z,9.2
2022-11-17T02:57:23.032Z,9.2
2022-11-17T02:58:23.053Z,9.2
2022-11-17T02:59:23.023Z,9.2
2022-11-17T03:00:23.025Z,9.2
2022-11-17T03:01:23.095Z,9.2
2022-11-17T03:02:23.035Z,9.2
2022-11-17T03:03:23.039Z,9.1
2022-11-17T03:04:23.042Z,9.1
2022-11-17T03:05:23.033Z,9.1
2022-11-17T03:06:23.040Z,9
2022-11-17T03:07:23.070Z,9
2022-11-17T03:08:23.050Z,9
2022-11-17T03:09:23.039Z,9
2022-11-17T03:10:23.022Z,9
2022-11-17T03:11:23.039Z,9
2022-11-17T03:12:23.049Z,9
2022-11-17T03:13:23.048Z,9
2022-11-17T03:14:23.036Z,9
2022-11-17T03:15:23.046Z,9.1
2022-11-17T03:16:23.054Z,9.1
2022-11-17T03:17:23.043Z,9.2
2022-11-17T03:18:23.030Z,9.2
2022-11-17T03:19:23.041Z,9.2
2022-11-17T03:20:23.141Z,9.3
2022-11-17T03:21:23.048Z,9.3
2022-11-17T03:22:23.058Z,9.3
2022-11-17T03:23:23.049Z,9.3
2022-11-17T03:24:23.045Z,9.3
2022-11-17T03:25:23.084Z,9.3
2022-11-17T03:26:23.053Z,9.3
2022-11-17T03:27:23.039Z,9.3
2022-11-17T03:28:23.036Z,9.3
2022-11-17T03:29:23.049Z,9.3
2022-11-17T03:30:23.045Z,9.3
2022-11-17T03:31:23.053Z,9.3
2022-11-17T03:32:23.046Z,9.3
2022-11-17T03:33:23.052Z,9.3
2022-11-17T03:34:23.053Z,9.3
2022-11-17T03:35:23.042Z,9.3
2022-11-17T03:36:23.074Z,9.2
2022-11-17T03:37:23.127Z,9.2
2022-11-17T03:38:23.062Z,9.2
2022-11-17T03:39:23.052Z,9.2
2022-11-17T03:40:23.053Z,9.2
2022-11-17T03:41:23.056Z,9.2
2022-11-17T03:42:23.144Z,9.2
2022-11-17T03:43:23.040Z,9.1
2022-11-17T03:44:23.056Z,9.1
2022-11-17T03:45:23.058Z,9.1
2022-11-17T03:46:23.057Z,9.1
2022-11-17T03:47:23.055Z,9.1
2022-11-17T03:48:23.055Z,9.1
2022-11-17T03:49:23.054Z,9.1
2022-11-17T03:50:23.054Z,9.1
2022-11-17T03:51:23.066Z,9.1
2022-11-17T03:52:23.169Z,9.1
2022-11-17T03:53:23.062Z,9.1
2022-11-17T03:54:23.060Z,9.1
2022-11-17T03:55:23.058Z,9.1
2022-11-17T03:56:23.091Z,9.1
2022-11-17T03:57:23.052Z,9.1
2022-11-17T03:58:23.051Z,9.1
2022-11-17T03:59:23.072Z,9.1
2022-11-17T04:00:23.073Z,9.1
2022-11-17T04:01:23.176Z,9
2022-11-17T04:02:23.048Z,9
2022-11-17T04:03:23.053Z,9
2022-11-17T04:04:23.055Z,9
2022-11-17T04:05:23.035Z,9
2022-11-17T04:06:23.057Z,9
2022-11-17T04:07:23.128Z,9
2022-11-17T04:08:23.161Z,9
2022-11-17T04:09:24.692Z,9
2022-11-17T04:10:23.040Z,9
2022-11-17T04:11:23.066Z,9
2022-11-17T04:12:23.063Z,9
2022-11-17T04:13:23.046Z,9
2022-11-17T04:14:23.044Z,9
2022-11-17T04:15:23.057Z,8.9
2022-11-17T04:16:23.072Z,8.9
2022-11-17T04:17:23.046Z,8.9
2022-11-17T04:18:23.051Z,8.9
2022-11-17T04:19:23.066Z,8.9
2022-11-17T04:20:23.039Z,8.9
2022-11-17T04:21:23.075Z,8.9
2022-11-17T04:22:23.056Z,8.9
2022-11-17T04:23:23.056Z,8.9
2022-11-17T04:24:23.167Z,8.9
2022-11-17T04:25:23.052Z,8.9
2022-11-17T04:26:23.063Z,8.9
2022-11-17T04:27:23.052Z,8.9
2022-11-17T04:28:23.063Z,8.9
2022-11-17T04:29:23.062Z,8.9
2022-11-17T04:30:23.045Z,8.9
2022-11-17T04:31:23.081Z,8.9
2022-11-17T04:32:23.070Z,8.9
2022-11-17T04:33:23.047Z,8.9
2022-11-17T04:34:23.057Z,8.9
2022-11-17T04:35:23.057Z,8.9
2022-11-17T04:36:23.270Z,8.9
2022-11-17T04:37:23.047Z,8.9
2022-11-17T04:38:23.068Z,9
2022-11-17T04:39:23.082Z,9
2022-11-17T04:40:23.177Z,9
2022-11-17T04:41:23.091Z,9
2022-11-17T04:42:23.072Z,9
2022-11-17T04:43:23.071Z,9
2022-11-17T04:44:23.064Z,9
2022-11-17T04:45:23.057Z,9
2022-11-17T04:46:23.092Z,9
2022-11-17T04:47:23.066Z,9.1
2022-11-17T04:48:23.068Z,9.1
2022-11-17T04:49:23.066Z,9.1
2022-11-17T04:50:23.060Z,9.1
2022-11-17T04:51:23.087Z,9.1
2022-11-17T04:52:26.870Z,9.1
2022-11-17T04:53:23.083Z,9.2
2022-11-17T04:54:23.067Z,9.2
2022-11-17T04:55:23.069Z,9.2
2022-11-17T04:56:23.210Z,9.2
2022-11-17T04:57:23.085Z,9.2
2022-11-17T04:58:23.071Z,9.2
2022-11-17T04:59:23.056Z,9.2
2022-11-17T05:00:23.056Z,9.2
2022-11-17T05:01:23.085Z,9.2
2022-11-17T05:02:23.073Z,9.2
2022-11-17T05:03:23.071Z,9.2
2022-11-17T05:04:23.139Z,9.2
2022-11-17T05:05:23.053Z,9.2
2022-11-17T05:06:23.079Z,9.2
2022-11-17T05:07:23.138Z,9.2
2022-11-17T05:08:23.078Z,9.2
2022-11-17T05:09:23.096Z,9.1
2022-11-17T05:10:23.050Z,9.1
2022-11-17T05:11:23.145Z,9.1
2022-11-17T05:12:23.263Z,9
2022-11-17T05:13:23.060Z,9
2022-11-17T05:14:23.080Z,9
2022-11-17T05:15:23.062Z,9
2022-11-17T05:16:23.099Z,8.9
2022-11-17T05:17:23.062Z,8.9
2022-11-17T05:18:23.072Z,8.9
2022-11-17T05:19:23.058Z,8.9
2022-11-17T05:20:23.046Z,8.9
2022-11-17T05:21:23.087Z,8.9
2022-11-17T05:22:23.066Z,9
2022-11-17T05:23:23.065Z,9
2022-11-17T05:24:23.059Z,9
2022-11-17T05:25:23.066Z,9
2022-11-17T05:26:23.095Z,9
2022-11-17T05:27:23.163Z,9
2022-11-17T05:28:23.183Z,9
2022-11-17T05:29:23.064Z,9
2022-11-17T05:30:23.065Z,9
2022-11-17T05:31:23.086Z,9
2022-11-17T05:32:23.074Z,9
2022-11-17T05:33:23.087Z,9
2022-11-17T05:34:23.065Z,9
2022-11-17T05:35:23.075Z,9
2022-11-17T05:36:23.104Z,9
2022-11-17T05:37:23.068Z,9
2022-11-17T05:38:23.068Z,8.9
2022-11-17T05:39:23.098Z,8.9
2022-11-17T05:40:23.067Z,8.9
2022-11-17T05:41:23.097Z,8.9
2022-11-17T05:42:23.077Z,8.9
2022-11-17T05:43:23.090Z,8.9
2022-11-17T05:44:23.184Z,8.9
2022-11-17T05:45:23.068Z,8.9
2022-11-17T05:46:23.080Z,8.9
2022-11-17T05:47:23.063Z,8.9
2022-11-17T05:48:23.075Z,8.9
2022-11-17T05:49:23.062Z,8.9
2022-11-17T05:50:23.069Z,8.9
2022-11-17T05:51:23.112Z,8.9
2022-11-17T05:52:23.087Z,8.9
2022-11-17T05:53:23.079Z,8.9
2022-11-17T05:54:23.073Z,8.8
2022-11-17T05:55:23.076Z,8.8
2022-11-17T05:56:23.091Z,8.8
2022-11-17T05:57:23.072Z,8.8
2022-11-17T05:58:23.092Z,8.8
2022-11-17T05:59:27.449Z,8.9
2022-11-17T06:00:23.190Z,8.9
2022-11-17T06:01:23.150Z,8.9
2022-11-17T06:02:23.078Z,8.9
2022-11-17T06:03:23.085Z,8.9
2022-11-17T06:04:23.137Z,8.9
2022-11-17T06:05:23.078Z,8.9
2022-11-17T06:06:23.089Z,8.9
2022-11-17T06:07:23.152Z,8.9
2022-11-17T06:08:23.077Z,8.9
2022-11-17T06:09:23.080Z,9
2022-11-17T06:10:23.081Z,9
2022-11-17T06:11:23.100Z,9
2022-11-17T06:12:23.086Z,9
2022-11-17T06:13:23.075Z,9
2022-11-17T06:14:23.097Z,9
2022-11-17T06:15:23.073Z,9
2022-11-17T06:16:23.206Z,9
2022-11-17T06:17:23.318Z,9
2022-11-17T06:18:23.348Z,9
2022-11-17T06:19:23.082Z,9
2022-11-17T06:20:23.075Z,9
2022-11-17T06:21:23.095Z,8.9
2022-11-17T06:22:23.085Z,8.9
2022-11-17T06:23:23.085Z,8.9
2022-11-17T06:24:23.080Z,8.9
2022-11-17T06:25:23.084Z,8.9
2022-11-17T06:26:23.112Z,9
2022-11-17T06:27:23.083Z,9
2022-11-17T06:28:23.092Z,9
2022-11-17T06:29:23.081Z,9
2022-11-17T06:30:23.076Z,9
2022-11-17T06:31:23.098Z,8.9
2022-11-17T06:32:23.099Z,8.9
2022-11-17T06:33:23.091Z,8.9
2022-11-17T06:34:23.078Z,8.9
2022-11-17T06:35:23.082Z,8.9
2022-11-17T06:36:23.132Z,8.9
2022-11-17T06:37:23.672Z,8.8
2022-11-17T06:38:23.086Z,8.8
2022-11-17T06:39:23.108Z,8.8
2022-11-17T06:40:23.076Z,8.7
2022-11-17T06:41:23.117Z,8.7
2022-11-17T06:42:23.085Z,8.7
2022-11-17T06:43:23.080Z,8.7
2022-11-17T06:44:23.078Z,8.7
2022-11-17T06:45:23.095Z,8.7
2022-11-17T06:46:23.102Z,8.7
2022-11-17T06:47:23.078Z,8.7
2022-11-17T06:48:23.489Z,8.6
2022-11-17T06:49:23.083Z,8.6
2022-11-17T06:50:23.078Z,8.6
2022-11-17T06:51:23.113Z,8.6
2022-11-17T06:52:23.105Z,8.6
2022-11-17T06:53:23.101Z,8.6
2022-11-17T06:54:23.088Z,8.7
2022-11-17T06:55:23.100Z,8.7
2022-11-17T06:56:23.101Z,8.7
2022-11-17T06:57:23.098Z,8.7
2022-11-17T06:58:23.097Z,8.7
2022-11-17T06:59:23.086Z,8.7
2022-11-17T07:00:23.092Z,8.7
2022-11-17T07:01:23.161Z,8.8
2022-11-17T07:02:23.091Z,8.8
2022-11-17T07:03:23.090Z,8.8
2022-11-17T07:04:23.213Z,8.9
2022-11-17T07:05:23.090Z,8.9
2022-11-17T07:06:23.112Z,8.9
2022-11-17T07:07:23.153Z,8.9
2022-11-17T07:08:23.107Z,8.9
2022-11-17T07:09:23.108Z,9
2022-11-17T07:10:23.097Z,8.9
2022-11-17T07:11:23.118Z,8.9
2022-11-17T07:12:23.102Z,8.9
2022-11-17T07:13:23.095Z,8.9
2022-11-17T07:14:23.093Z,8.9
2022-11-17T07:15:23.093Z,8.9
2022-11-17T07:16:23.937Z,8.9
2022-11-17T07:17:23.096Z,8.8
2022-11-17T07:18:23.098Z,8.8
2022-11-17T07:19:23.106Z,8.8
2022-11-17T07:20:23.214Z,8.8
2022-11-17T07:21:23.118Z,8.8
2022-11-17T07:22:23.119Z,8.8
2022-11-17T07:23:23.137Z,8.8
2022-11-17T07:24:23.109Z,8.8
2022-11-17T07:25:23.101Z,8.8
2022-11-17T07:26:23.130Z,8.9
2022-11-17T07:27:23.104Z,8.9
2022-11-17T07:28:23.095Z,8.9
2022-11-17T07:29:23.097Z,8.9
2022-11-17T07:30:23.104Z,8.9
2022-11-17T07:31:23.120Z,9
2022-11-17T07:32:23.097Z,9
2022-11-17T07:33:23.112Z,9
2022-11-17T07:34:23.135Z,9
2022-11-17T07:35:23.106Z,9.1
2022-11-17T07:36:23.284Z,9.1
2022-11-17T07:37:23.117Z,9.1
2022-11-17T07:38:23.124Z,9.1
2022-11-17T07:39:23.114Z,9.1
2022-11-17T07:40:23.119Z,9.1
2022-11-17T07:41:23.140Z,9.1
2022-11-17T07:42:23.118Z,9.1
2022-11-17T07:43:23.118Z,9.1
2022-11-17T07:44:23.114Z,9.1
2022-11-17T07:45:24.188Z,9.2
2022-11-17T07:46:23.141Z,9.2
2022-11-17T07:47:23.130Z,9.2
2022-11-17T07:48:23.130Z,9.2
2022-11-17T07:49:23.124Z,9.2
2022-11-17T07:50:23.121Z,9.2
2022-11-17T07:51:23.137Z,9.3
2022-11-17T07:52:23.134Z,9.3
2022-11-17T07:53:23.118Z,9.3
2022-11-17T07:54:23.121Z,9.3
2022-11-17T07:55:23.117Z,9.4
2022-11-17T07:56:23.140Z,9.4
2022-11-17T07:57:23.124Z,9.4
2022-11-17T07:58:23.138Z,9.5
2022-11-17T07:59:23.121Z,9.5
2022-11-17T08:00:23.130Z,9.5
2022-11-17T08:01:23.256Z,9.5
2022-11-17T08:02:23.120Z,9.5
2022-11-17T08:03:23.214Z,9.5
2022-11-17T08:04:23.134Z,9.5
2022-11-17T08:05:23.121Z,9.5
2022-11-17T08:06:23.196Z,9.5
2022-11-17T08:07:23.170Z,9.6
2022-11-17T08:08:23.157Z,9.5
2022-11-17T08:09:23.122Z,9.5
2022-11-17T08:10:23.132Z,9.5
2022-11-17T08:11:23.170Z,9.5
2022-11-17T08:12:23.119Z,9.5
2022-11-17T08:13:23.122Z,9.5
2022-11-17T08:14:23.124Z,9.5
2022-11-17T08:15:23.124Z,9.5
2022-11-17T08:16:23.136Z,9.5
2022-11-17T08:17:23.127Z,9.5
2022-11-17T08:18:23.135Z,9.6
2022-11-17T08:19:23.136Z,9.6
2022-11-17T08:20:23.130Z,9.6
2022-11-17T08:21:23.146Z,9.6
2022-11-17T08:22:23.139Z,9.6
2022-11-17T08:23:23.133Z,9.7
2022-11-17T08:24:23.157Z,9.7
2022-11-17T08:25:23.162Z,9.7
2022-11-17T08:26:23.159Z,9.7
2022-11-17T08:27:23.132Z,9.7
2022-11-17T08:28:23.147Z,9.8
2022-11-17T08:29:23.129Z,9.8
2022-11-17T08:30:23.155Z,9.8
2022-11-17T08:31:23.183Z,9.8
2022-11-17T08:32:23.430Z,9.8
2022-11-17T08:33:23.143Z,9.8
2022-11-17T08:34:23.152Z,9.8
2022-11-17T08:35:23.132Z,9.9
2022-11-17T08:36:23.170Z,9.9
2022-11-17T08:37:23.143Z,9.9
2022-11-17T08:38:23.148Z,9.9
2022-11-17T08:39:23.133Z,9.9
2022-11-17T08:40:23.261Z,9.9
2022-11-17T08:41:23.165Z,9.9
2022-11-17T08:42:23.132Z,9.9
2022-11-17T08:43:23.164Z,10
2022-11-17T08:44:23.146Z,10
2022-11-17T08:45:23.151Z,10
2022-11-17T08:46:23.160Z,10
2022-11-17T08:47:23.147Z,10
2022-11-17T08:48:23.176Z,10.1
2022-11-17T08:49:23.173Z,10.1
2022-11-17T08:50:23.136Z,10.1
2022-11-17T08:51:23.182Z,10.1
2022-11-17T08:52:23.153Z,10.1
2022-11-17T08:53:23.138Z,10.2
2022-11-17T08:54:23.158Z,10.2
2022-11-17T08:55:23.188Z,10.2
2022-11-17T08:56:23.284Z,10.3
2022-11-17T08:57:23.261Z,10.3
2022-11-17T08:58:23.138Z,10.3
2022-11-17T08:59:23.145Z,10.4
2022-11-17T09:00:23.154Z,10.4
2022-11-17T09:01:23.195Z,10.4
2022-11-17T09:02:23.149Z,10.4
2022-11-17T09:03:23.135Z,10.5
2022-11-17T09:04:23.137Z,10.5
2022-11-17T09:05:23.159Z,10.5
2022-11-17T09:06:23.173Z,10.5
2022-11-17T09:07:23.228Z,10.6
2022-11-17T09:08:44.248Z,10.6
2022-11-17T09:09:23.177Z,10.6
2022-11-17T09:10:23.422Z,10.6
2022-11-17T09:11:23.193Z,10.6
2022-11-17T09:12:23.227Z,10.6
2022-11-17T09:13:23.196Z,10.6
2022-11-17T09:14:23.189Z,10.6
2022-11-17T09:15:23.189Z,10.6
2022-11-17T09:16:23.195Z,10.5
2022-11-17T09:17:23.206Z,10.5
2022-11-17T09:18:23.198Z,10.5
2022-11-17T09:19:23.194Z,10.5
2022-11-17T09:20:23.451Z,10.5
2022-11-17T09:21:23.206Z,10.4
2022-11-17T09:22:23.179Z,10.4
2022-11-17T09:23:23.184Z,10.4
2022-11-17T09:24:23.190Z,10.4
2022-11-17T09:25:23.225Z,10.3
2022-11-17T09:26:23.194Z,10.3
2022-11-17T09:27:23.193Z,10.3
2022-11-17T09:28:23.233Z,10.3
2022-11-17T09:29:23.190Z,10.3
2022-11-17T09:30:23.196Z,10.3
2022-11-17T09:31:23.675Z,10.3
2022-11-17T09:32:23.187Z,10.4
2022-11-17T09:33:23.185Z,10.4
2022-11-17T09:34:23.230Z,10.5
2022-11-17T09:35:23.184Z,10.5
2022-11-17T09:36:23.203Z,10.6
2022-11-17T09:37:23.210Z,10.7
2022-11-17T09:38:23.207Z,10.8
2022-11-17T09:39:23.190Z,10.9
2022-11-17T09:40:23.199Z,11
2022-11-17T09:41:23.198Z,11.1
2022-11-17T09:42:23.198Z,11.2
2022-11-17T09:43:23.221Z,11.3
2022-11-17T09:44:23.324Z,11.3
2022-11-17T09:45:23.204Z,11.4
2022-11-17T09:46:23.220Z,11.4
2022-11-17T09:47:23.197Z,11.5
2022-11-17T09:48:40.564Z,11.5
2022-11-17T09:49:23.183Z,11.5
2022-11-17T09:50:23.223Z,11.5
2022-11-17T09:51:23.209Z,11.6
2022-11-17T09:52:23.189Z,11.6
2022-11-17T09:53:23.194Z,11.6
2022-11-17T09:54:23.206Z,11.6
2022-11-17T09:55:23.205Z,11.6
2022-11-17T09:56:23.216Z,11.6
2022-11-17T09:57:23.193Z,11.6
2022-11-17T09:58:23.195Z,11.6
2022-11-17T09:59:23.199Z,11.6
2022-11-17T10:00:23.204Z,11.6
2022-11-17T10:01:23.223Z,11.6
2022-11-17T10:02:23.254Z,11.5
2022-11-17T10:03:23.194Z,11.5
2022-11-17T10:04:23.192Z,11.5
2022-11-17T10:05:23.262Z,11.6
2022-11-17T10:06:23.224Z,11.6
2022-11-17T10:07:23.247Z,11.6
2022-11-17T10:08:23.202Z,11.6
2022-11-17T10:09:25.820Z,11.6
2022-11-17T10:10:23.198Z,11.6
2022-11-17T10:11:23.211Z,11.6
2022-11-17T10:12:23.196Z,11.6
2022-11-17T10:13:23.188Z,11.6
2022-11-17T10:14:23.200Z,11.6
2022-11-17T10:15:23.196Z,11.6
2022-11-17T10:16:23.243Z,11.6
2022-11-17T10:17:23.197Z,11.6
2022-11-17T10:18:23.210Z,11.7
2022-11-17T10:19:23.247Z,11.7
2022-11-17T10:20:23.223Z,11.7
2022-11-17T10:21:23.232Z,11.7
2022-11-17T10:22:23.220Z,11.7
2022-11-17T10:23:23.205Z,11.7
2022-11-17T10:24:23.220Z,11.7
2022-11-17T10:25:23.222Z,11.6
2022-11-17T10:26:23.330Z,11.6
2022-11-17T10:27:23.207Z,11.6
2022-11-17T10:28:23.212Z,11.6
2022-11-17T10:29:23.196Z,11.6
2022-11-17T10:30:23.213Z,11.6
2022-11-17T10:31:23.216Z,11.6
2022-11-17T10:32:23.334Z,11.6
2022-11-17T10:33:23.215Z,11.6
2022-11-17T10:34:26.836Z,11.6
2022-11-17T10:35:23.225Z,11.6
2022-11-17T10:36:23.228Z,11.6
2022-11-17T10:37:23.216Z,11.6
2022-11-17T10:38:23.216Z,11.6
2022-11-17T10:39:23.213Z,11.6
2022-11-17T10:40:25.548Z,11.6
2022-11-17T10:41:23.231Z,11.7
2022-11-17T10:42:23.210Z,11.7
2022-11-17T10:43:23.224Z,11.7
2022-11-17T10:44:23.217Z,11.7
2022-11-17T10:45:23.204Z,11.7
2022-11-17T10:46:23.237Z,11.7
2022-11-17T10:47:23.209Z,11.7
2022-11-17T10:48:23.256Z,11.7
2022-11-17T10:49:23.211Z,11.7
2022-11-17T10:50:23.220Z,11.7
2022-11-17T10:51:23.245Z,11.7
2022-11-17T10:52:23.222Z,11.7
2022-11-17T10:53:23.212Z,11.7
2022-11-17T10:54:23.219Z,11.7
2022-11-17T10:55:23.210Z,11.7
2022-11-17T10:56:23.221Z,11.7
2022-11-17T10:57:23.219Z,11.8
2022-11-17T10:58:23.228Z,11.8
2022-11-17T10:59:23.214Z,11.8
2022-11-17T11:00:23.220Z,11.8
2022-11-17T11:01:25.919Z,11.8
2022-11-17T11:02:23.231Z,11.8
2022-11-17T11:03:23.230Z,11.8
2022-11-17T11:04:23.245Z,11.8
2022-11-17T11:05:23.242Z,11.8
2022-11-17T11:06:23.240Z,11.8
2022-11-17T11:07:23.280Z,11.9
2022-11-17T11:08:23.213Z,11.9
2022-11-17T11:09:23.255Z,11.9
2022-11-17T11:10:23.236Z,11.9
2022-11-17T11:11:23.254Z,11.9
2022-11-17T11:12:23.233Z,11.9
2022-11-17T11:13:23.216Z,11.9
2022-11-17T11:14:23.435Z,11.9
2022-11-17T11:15:23.220Z,11.8
2022-11-17T11:16:23.251Z,11.8
2022-11-17T11:17:23.232Z,11.8
2022-11-17T11:18:23.244Z,11.7
2022-11-17T11:19:23.223Z,11.7
2022-11-17T11:20:23.256Z,11.6
2022-11-17T11:21:23.249Z,11.5
2022-11-17T11:22:23.226Z,11.5
2022-11-17T11:23:23.236Z,11.4
2022-11-17T11:24:23.221Z,11.3
2022-11-17T11:25:23.223Z,11.2
2022-11-17T11:26:23.259Z,11.1
2022-11-17T11:27:23.225Z,11
2022-11-17T11:28:23.229Z,10.9
2022-11-17T11:29:23.241Z,10.8
2022-11-17T11:30:23.258Z,10.7
2022-11-17T11:31:23.244Z,10.6
2022-11-17T11:32:23.232Z,10.5
2022-11-17T11:33:23.240Z,10.4
2022-11-17T11:34:23.235Z,10.3
2022-11-17T11:35:23.247Z,10.2
2022-11-17T11:36:23.260Z,10.2
2022-11-17T11:37:23.229Z,10.1
2022-11-17T11:38:23.274Z,10.1
2022-11-17T11:39:23.230Z,10
2022-11-17T11:40:23.234Z,9.9
2022-11-17T11:41:23.234Z,9.9
2022-11-17T11:42:23.232Z,9.9
2022-11-17T11:43:23.235Z,9.8
2022-11-17T11:44:23.234Z,9.8
2022-11-17T11:45:23.231Z,9.8
2022-11-17T11:46:23.246Z,9.7
2022-11-17T11:47:23.223Z,9.7
2022-11-17T11:48:23.241Z,9.7
2022-11-17T11:49:23.232Z,9.7
2022-11-17T11:50:23.264Z,9.7
2022-11-17T11:51:23.250Z,9.7
2022-11-17T11:52:23.497Z,9.7
2022-11-17T11:53:23.238Z,9.7
2022-11-17T11:54:23.246Z,9.7
2022-11-17T11:55:23.262Z,9.7
2022-11-17T11:56:23.254Z,9.7
2022-11-17T11:57:23.258Z,9.7
2022-11-17T11:58:23.250Z,9.7
2022-11-17T11:59:23.294Z,9.7
2022-11-17T12:00:23.266Z,9.7
2022-11-17T12:01:23.294Z,9.7
2022-11-17T12:02:23.418Z,9.6
2022-11-17T12:03:23.271Z,9.6
2022-11-17T12:04:23.247Z,9.6
2022-11-17T12:05:23.246Z,9.6
2022-11-17T12:06:23.256Z,9.6
2022-11-17T12:07:23.314Z,9.6
2022-11-17T12:08:23.276Z,9.6
2022-11-17T12:09:23.258Z,9.5
2022-11-17T12:10:23.246Z,9.5
2022-11-17T12:11:23.265Z,9.5
2022-11-17T12:12:23.251Z,9.5
2022-11-17T12:13:23.256Z,9.5
2022-11-17T12:14:23.258Z,9.5
2022-11-17T12:15:23.266Z,9.5
2022-11-17T12:16:23.283Z,9.5
2022-11-17T12:17:23.485Z,9.5
2022-11-17T12:18:23.254Z,9.5
2022-11-17T12:19:23.268Z,9.5
2022-11-17T12:20:23.241Z,9.5
2022-11-17T12:21:23.261Z,9.6
2022-11-17T12:22:23.244Z,9.6
2022-11-17T12:23:23.259Z,9.6
2022-11-17T12:24:23.268Z,9.7
2022-11-17T12:25:23.255Z,9.7
2022-11-17T12:26:23.288Z,9.7
2022-11-17T12:27:23.252Z,9.8
2022-11-17T12:28:23.252Z,9.8
2022-11-17T12:29:23.258Z,9.8
2022-11-17T12:30:23.251Z,9.8
2022-11-17T12:31:23.268Z,9.9
2022-11-17T12:32:23.255Z,9.9
2022-11-17T12:33:23.251Z,9.9
2022-11-17T12:34:23.265Z,9.9
2022-11-17T12:35:23.293Z,10
2022-11-17T12:36:28.642Z,10
2022-11-17T12:37:23.266Z,10
2022-11-17T12:38:23.258Z,10.1
2022-11-17T12:39:23.249Z,10.1
2022-11-17T12:40:23.290Z,10.1
2022-11-17T12:41:23.282Z,10.2
2022-11-17T12:42:23.249Z,10.2
2022-11-17T12:43:23.270Z,10.3
2022-11-17T12:44:23.268Z,10.3
2022-11-17T12:45:23.272Z,10.3
2022-11-17T12:46:23.271Z,10.4
2022-11-17T12:47:23.268Z,10.4
2022-11-17T12:48:37.723Z,10.5
2022-11-17T12:49:23.346Z,10.5
2022-11-17T12:50:23.269Z,10.5
2022-11-17T12:51:23.295Z,10.6
2022-11-17T12:52:23.269Z,10.6
2022-11-17T12:53:23.294Z,10.6
2022-11-17T12:54:23.268Z,10.6
2022-11-17T12:55:23.295Z,10.7
2022-11-17T12:56:23.313Z,10.7
2022-11-17T12:57:23.291Z,10.7
2022-11-17T12:58:23.279Z,10.7
2022-11-17T12:59:23.281Z,10.7
2022-11-17T13:00:23.273Z,10.8
2022-11-17T13:01:23.329Z,10.8
2022-11-17T13:02:23.264Z,10.8
2022-11-17T13:03:23.269Z,10.8
2022-11-17T13:04:23.283Z,10.9
2022-11-17T13:05:23.296Z,10.9
2022-11-17T13:06:38.729Z,10.9
2022-11-17T13:07:23.311Z,10.9
2022-11-17T13:08:23.280Z,10.9
2022-11-17T13:09:23.285Z,11
2022-11-17T13:10:23.294Z,11
2022-11-17T13:11:23.322Z,11
2022-11-17T13:12:23.292Z,11
2022-11-17T13:13:23.275Z,11
2022-11-17T13:14:23.291Z,11
2022-11-17T13:15:23.295Z,11.1
2022-11-17T13:16:23.315Z,11.1
2022-11-17T13:17:23.273Z,11.1
2022-11-17T13:18:23.282Z,11.1
2022-11-17T13:19:23.291Z,11.1
2022-11-17T13:20:23.275Z,11.1
2022-11-17T13:21:23.301Z,11.1
2022-11-17T13:22:23.287Z,11.2
2022-11-17T13:23:23.285Z,11.2
2022-11-17T13:24:23.275Z,11.2
2022-11-17T13:25:23.301Z,11.2
2022-11-17T13:26:23.317Z,11.2
2022-11-17T13:27:23.295Z,11.3
2022-11-17T13:28:23.438Z,11.3
2022-11-17T13:29:23.300Z,11.3
2022-11-17T13:30:23.283Z,11.4
2022-11-17T13:31:23.306Z,11.4
2022-11-17T13:32:23.334Z,11.5
2022-11-17T13:33:23.283Z,11.6
2022-11-17T13:34:23.284Z,11.7
2022-11-17T13:35:23.310Z,11.7
2022-11-17T13:36:23.292Z,11.8
2022-11-17T13:37:23.284Z,11.8
2022-11-17T13:38:23.282Z,11.9
2022-11-17T13:39:27.228Z,11.9
2022-11-17T13:40:23.303Z,11.9
2022-11-17T13:41:23.301Z,11.9
2022-11-17T13:42:23.291Z,11.9
2022-11-17T13:43:23.302Z,11.8
2022-11-17T13:44:23.364Z,11.8